170450Z 32011KT 9999 -SN BKN006 OVC009 M14/M16 Q0989 RWY 14 ICE 26-50 PCT FCT 0.32=

170230Z 1703/1712 36006KT 9999 OVC007 TEMPO 1703/1709 SCT008 BKN015 BECMG 1709/1711 SCT020=

Aktuell METAR/TAF ESNU/UME

Källa: Luftfartsverket (aro.lfv.se)